createdAt,value
2022-08-25T00:00:20.335Z,29.31
2022-08-25T00:02:56.248Z,29.26
2022-08-25T00:05:29.440Z,29.19
2022-08-25T00:08:00.588Z,29.16
2022-08-25T00:10:28.678Z,29.09
2022-08-25T00:12:57.971Z,29.02
2022-08-25T00:15:25.923Z,28.98
2022-08-25T00:17:53.797Z,28.90
2022-08-25T00:20:22.422Z,28.83
2022-08-25T00:22:50.464Z,28.75
2022-08-25T00:25:18.836Z,28.59
2022-08-25T00:27:47.591Z,28.65
2022-08-25T00:30:17.363Z,28.58
2022-08-25T00:32:50.497Z,28.53
2022-08-25T00:35:25.704Z,28.44
2022-08-25T00:37:53.566Z,28.40
2022-08-25T00:40:21.653Z,28.36
2022-08-25T00:42:49.673Z,28.32
2022-08-25T00:45:18.884Z,28.17
2022-08-25T00:47:46.808Z,28.20
2022-08-25T00:50:14.612Z,28.17
2022-08-25T00:52:44.452Z,27.80
2022-08-25T00:55:14.402Z,28.08
2022-08-25T00:57:44.216Z,28.04
2022-08-25T01:00:15.185Z,28.00
2022-08-25T01:02:45.082Z,27.95
2022-08-25T01:05:13.322Z,27.92
2022-08-25T01:07:41.378Z,27.88
2022-08-25T01:10:13.451Z,27.48
2022-08-25T01:12:41.278Z,27.80
2022-08-25T01:15:10.560Z,27.76
2022-08-25T01:17:46.222Z,27.73
2022-08-25T01:20:15.569Z,27.69
2022-08-25T01:22:44.923Z,27.69
2022-08-25T01:25:26.430Z,27.68
2022-08-25T01:27:54.297Z,27.63
2022-08-25T01:30:23.460Z,27.63
2022-08-25T01:32:51.285Z,27.60
2022-08-25T01:35:19.639Z,27.57
2022-08-25T01:37:49.106Z,27.52
2022-08-25T01:40:17.122Z,27.43
2022-08-25T01:42:49.407Z,27.37
2022-08-25T01:45:17.478Z,27.39
2022-08-25T01:47:45.295Z,27.43
2022-08-25T01:50:13.644Z,27.40
2022-08-25T01:52:51.403Z,27.37
2022-08-25T01:55:19.288Z,27.34
2022-08-25T01:57:47.396Z,27.31
2022-08-25T02:00:16.283Z,27.29
2022-08-25T02:02:44.268Z,27.26
2022-08-25T02:05:13.265Z,27.24
2022-08-25T02:07:42.312Z,27.21
2022-08-25T02:10:12.252Z,27.18
2022-08-25T02:12:40.216Z,27.16
2022-08-25T02:15:09.165Z,27.10
2022-08-25T02:17:37.127Z,27.10
2022-08-25T02:20:05.699Z,27.09
2022-08-25T02:22:33.531Z,27.04
2022-08-25T02:25:01.549Z,27.05
2022-08-25T02:27:30.723Z,27.03
2022-08-25T02:29:58.620Z,26.68
2022-08-25T02:32:26.443Z,26.98
2022-08-25T02:34:54.340Z,26.92
2022-08-25T02:37:22.306Z,26.93
2022-08-25T02:39:50.287Z,26.88
2022-08-25T02:42:18.148Z,26.87
2022-08-25T02:44:48.143Z,26.85
2022-08-25T02:47:16.574Z,26.85
2022-08-25T02:49:44.643Z,26.85
2022-08-25T02:52:13.179Z,26.82
2022-08-25T02:54:41.103Z,26.80
2022-08-25T02:57:10.568Z,26.79
2022-08-25T02:59:39.232Z,26.77
2022-08-25T03:02:08.432Z,26.75
2022-08-25T03:04:36.547Z,26.75
2022-08-25T03:07:05.623Z,26.73
2022-08-25T03:09:34.295Z,26.70
2022-08-25T03:12:06.302Z,26.73
2022-08-25T03:14:34.263Z,26.73
2022-08-25T03:17:02.382Z,26.71
2022-08-25T03:19:31.801Z,26.70
2022-08-25T03:21:59.744Z,26.70
2022-08-25T03:24:28.012Z,26.68
2022-08-25T03:26:55.834Z,26.69
2022-08-25T03:29:24.396Z,26.70
2022-08-25T03:31:52.487Z,26.70
2022-08-25T03:34:20.593Z,26.70
2022-08-25T03:36:51.302Z,26.68
2022-08-25T03:39:19.827Z,26.66
2022-08-25T03:41:48.184Z,26.66
2022-08-25T03:44:16.126Z,26.62
2022-08-25T03:46:46.640Z,26.65
2022-08-25T03:49:17.543Z,26.65
2022-08-25T03:51:47.371Z,26.39
2022-08-25T03:54:16.755Z,26.65
2022-08-25T03:56:44.701Z,26.63
2022-08-25T03:59:12.631Z,26.63
2022-08-25T04:01:41.326Z,26.61
2022-08-25T04:04:09.725Z,26.59
2022-08-25T04:06:37.562Z,26.55
2022-08-25T04:09:08.517Z,26.52
2022-08-25T04:11:37.770Z,26.53
2022-08-25T04:14:05.921Z,26.52
2022-08-25T04:16:35.011Z,26.50
2022-08-25T04:19:04.933Z,26.49
2022-08-25T04:21:33.092Z,26.50
2022-08-25T04:24:01.041Z,26.46
2022-08-25T04:26:29.936Z,26.47
2022-08-25T04:29:00.026Z,26.48
2022-08-25T04:31:28.096Z,26.47
2022-08-25T04:33:56.150Z,26.46
2022-08-25T04:36:23.953Z,26.44
2022-08-25T04:38:51.847Z,26.42
2022-08-25T04:41:20.990Z,26.42
2022-08-25T04:43:49.291Z,26.43
2022-08-25T04:46:20.583Z,26.42
2022-08-25T04:48:52.242Z,26.42
2022-08-25T04:51:21.246Z,26.13
2022-08-25T04:53:49.166Z,26.42
2022-08-25T04:56:18.178Z,26.41
2022-08-25T04:58:46.845Z,26.39
2022-08-25T05:01:17.199Z,26.42
2022-08-25T05:03:47.137Z,26.42
2022-08-25T05:06:16.229Z,26.43
2022-08-25T05:08:45.836Z,26.45
2022-08-25T05:11:16.563Z,26.45
2022-08-25T05:13:51.408Z,26.48
2022-08-25T05:16:20.080Z,26.49
2022-08-25T05:18:49.404Z,26.50
2022-08-25T05:21:19.224Z,26.52
2022-08-25T05:23:47.604Z,26.55
2022-08-25T05:28:43.235Z,26.59
2022-08-25T05:31:12.220Z,26.61
2022-08-25T05:33:40.418Z,26.62
2022-08-25T05:36:10.544Z,26.66
2022-08-25T05:38:39.781Z,26.59
2022-08-25T05:41:10.279Z,26.71
2022-08-25T05:43:41.515Z,26.78
2022-08-25T05:46:09.681Z,26.83
2022-08-25T05:48:55.018Z,26.93
2022-08-25T05:51:24.442Z,26.93
2022-08-25T05:53:56.702Z,26.95
2022-08-25T05:56:24.550Z,27.05
2022-08-25T05:58:52.497Z,27.09
2022-08-25T06:01:39.045Z,27.13
2022-08-25T06:04:06.949Z,27.21
2022-08-25T06:06:36.314Z,27.28
2022-08-25T06:09:08.479Z,27.40
2022-08-25T06:11:39.808Z,27.47
2022-08-25T06:14:08.395Z,27.67
2022-08-25T06:16:36.462Z,28.10
2022-08-25T06:19:04.396Z,28.62
2022-08-25T06:21:32.295Z,29.24
2022-08-25T06:24:01.538Z,29.88
2022-08-25T06:26:29.473Z,30.59
2022-08-25T06:28:57.305Z,31.14
2022-08-25T06:31:25.274Z,31.85
2022-08-25T06:33:53.201Z,32.46
2022-08-25T06:36:21.117Z,32.92
2022-08-25T06:38:49.237Z,33.40
2022-08-25T06:41:18.511Z,33.99
2022-08-25T06:43:49.843Z,34.53
2022-08-25T06:46:20.136Z,35.06
2022-08-25T06:48:48.011Z,35.48
2022-08-25T06:51:17.068Z,35.73
2022-08-25T06:53:45.110Z,36.18
2022-08-25T06:56:13.167Z,36.39
2022-08-25T06:58:42.349Z,36.68
2022-08-25T07:01:15.828Z,36.99
2022-08-25T07:03:48.236Z,37.41
2022-08-25T07:06:18.278Z,37.70
2022-08-25T07:08:46.613Z,38.10
2022-08-25T07:11:16.584Z,38.50
2022-08-25T07:13:46.784Z,38.86
2022-08-25T07:16:15.723Z,39.22
2022-08-25T07:18:44.290Z,39.45
2022-08-25T07:21:12.357Z,39.72
2022-08-25T07:23:40.411Z,40.09
2022-08-25T07:26:21.282Z,40.44
2022-08-25T07:28:59.745Z,40.75
2022-08-25T07:31:29.705Z,40.93
2022-08-25T07:34:16.479Z,40.64
2022-08-25T07:36:44.943Z,40.65
2022-08-25T07:39:12.971Z,40.90
2022-08-25T07:41:41.844Z,41.12
2022-08-25T07:44:11.967Z,41.26
2022-08-25T07:46:39.920Z,41.27
2022-08-25T07:49:16.763Z,41.48
2022-08-25T07:52:04.033Z,41.78
2022-08-25T07:54:34.076Z,42.28
2022-08-25T07:57:03.701Z,42.65
2022-08-25T07:59:38.941Z,42.92
2022-08-25T08:02:08.943Z,43.18
2022-08-25T08:04:42.538Z,43.45
2022-08-25T08:07:11.976Z,43.76
2022-08-25T08:09:40.231Z,43.99
2022-08-25T08:12:09.509Z,44.16
2022-08-25T08:14:39.647Z,44.41
2022-08-25T08:17:13.310Z,44.63
2022-08-25T08:19:44.802Z,44.77
2022-08-25T08:22:15.538Z,44.84
2022-08-25T08:24:56.230Z,44.73
2022-08-25T08:27:24.567Z,44.92
2022-08-25T08:29:54.353Z,45.12
2022-08-25T08:32:25.233Z,45.36
2022-08-25T08:35:03.436Z,45.82
2022-08-25T08:37:31.449Z,46.18
2022-08-25T08:40:03.227Z,46.61
2022-08-25T08:42:52.974Z,47.19
2022-08-25T08:45:27.743Z,47.45
2022-08-25T08:48:22.615Z,47.55
2022-08-25T08:50:57.519Z,47.59
2022-08-25T08:53:28.574Z,47.67
2022-08-25T08:56:04.229Z,47.97
2022-08-25T08:58:36.778Z,47.54
2022-08-25T09:01:06.114Z,47.37
2022-08-25T09:03:36.049Z,47.61
2022-08-25T09:06:09.997Z,47.96
2022-08-25T09:08:39.046Z,48.40
2022-08-25T09:11:18.899Z,48.43
2022-08-25T09:13:59.362Z,48.55
2022-08-25T09:16:45.399Z,49.04
2022-08-25T09:19:23.451Z,49.31
2022-08-25T09:21:53.628Z,49.66
2022-08-25T09:24:28.143Z,49.73
2022-08-25T09:27:03.437Z,49.95
2022-08-25T09:29:35.013Z,50.22
2022-08-25T09:32:04.244Z,50.43
2022-08-25T09:34:34.420Z,50.67
2022-08-25T09:37:03.363Z,51.15
2022-08-25T09:39:32.657Z,51.48
2022-08-25T09:42:01.019Z,51.53
2022-08-25T09:44:31.446Z,51.84
2022-08-25T09:47:08.305Z,52.32
2022-08-25T09:49:40.312Z,52.79
2022-08-25T09:52:32.912Z,53.08
2022-08-25T09:55:02.586Z,52.94
2022-08-25T09:57:35.683Z,53.15
2022-08-25T10:00:15.085Z,53.42
2022-08-25T10:02:44.603Z,53.63
2022-08-25T10:05:38.126Z,54.14
2022-08-25T10:08:14.550Z,54.62
2022-08-25T10:10:46.215Z,54.90
2022-08-25T10:13:15.244Z,55.09
2022-08-25T10:15:43.409Z,54.94
2022-08-25T10:18:25.633Z,54.24
2022-08-25T10:21:07.594Z,54.11
2022-08-25T10:23:45.386Z,54.07
2022-08-25T10:26:21.838Z,53.35
2022-08-25T10:29:00.339Z,53.26
2022-08-25T10:31:33.123Z,53.62
2022-08-25T10:34:11.183Z,54.34
2022-08-25T10:36:46.956Z,54.40
2022-08-25T10:39:34.307Z,54.79
2022-08-25T10:42:07.755Z,55.09
2022-08-25T10:45:01.107Z,55.21
2022-08-25T10:47:54.281Z,55.65
2022-08-25T10:50:29.394Z,55.60
2022-08-25T10:53:19.286Z,55.86
2022-08-25T10:55:53.164Z,56.23
2022-08-25T10:58:24.600Z,56.33
2022-08-25T11:01:02.741Z,56.71
2022-08-25T11:03:41.280Z,57.36
2022-08-25T11:06:12.627Z,58.02
2022-08-25T11:08:41.975Z,58.67
2022-08-25T11:11:12.197Z,58.83
2022-08-25T11:13:42.995Z,59.17
2022-08-25T11:16:17.400Z,59.45
2022-08-25T11:18:50.903Z,59.86
2022-08-25T11:21:22.164Z,59.91
2022-08-25T11:23:53.414Z,60.21
2022-08-25T11:26:28.881Z,60.58
2022-08-25T11:31:32.939Z,60.80
2022-08-25T11:34:00.802Z,60.44
2022-08-25T11:36:32.158Z,59.60
2022-08-25T11:39:09.187Z,58.71
2022-08-25T11:41:41.339Z,58.11
2022-08-25T11:44:19.879Z,57.37
2022-08-25T11:46:59.117Z,56.73
2022-08-25T11:49:40.822Z,56.14
2022-08-25T11:52:31.147Z,55.17
2022-08-25T11:55:06.578Z,53.90
2022-08-25T11:57:37.276Z,52.33
2022-08-25T12:00:15.150Z,51.20
2022-08-25T12:02:44.484Z,50.04
2022-08-25T12:05:29.010Z,49.13
2022-08-25T12:08:22.644Z,48.15
2022-08-25T12:10:59.036Z,47.11
2022-08-25T12:13:44.035Z,46.25
2022-08-25T12:16:38.811Z,45.20
2022-08-25T12:19:28.665Z,44.51
2022-08-25T12:21:57.780Z,44.14
2022-08-25T12:24:48.237Z,43.82
2022-08-25T12:27:23.385Z,43.69
2022-08-25T12:29:52.321Z,43.48
2022-08-25T12:32:38.281Z,43.05
2022-08-25T12:35:26.565Z,42.46
2022-08-25T12:38:01.066Z,42.14
2022-08-25T12:40:34.578Z,41.80
2022-08-25T12:43:11.440Z,41.35
2022-08-25T12:45:43.878Z,41.23
2022-08-25T12:48:42.948Z,40.93
2022-08-25T12:51:17.178Z,40.58
2022-08-25T12:53:46.553Z,40.36
2022-08-25T12:56:23.506Z,40.15
2022-08-25T12:59:02.236Z,39.90
2022-08-25T13:01:38.136Z,39.71
2022-08-25T13:04:21.559Z,39.48
2022-08-25T13:07:02.989Z,39.78
2022-08-25T13:10:16.870Z,39.81
2022-08-25T13:12:48.880Z,39.57
2022-08-25T13:15:26.294Z,39.44
2022-08-25T13:17:54.285Z,39.43
2022-08-25T13:20:25.313Z,39.47
2022-08-25T13:22:58.699Z,39.62
2022-08-25T13:25:32.159Z,39.46
2022-08-25T13:28:04.211Z,39.55
2022-08-25T13:30:34.289Z,39.51
2022-08-25T13:33:12.838Z,39.44
2022-08-25T13:35:41.209Z,39.39
2022-08-25T13:38:15.005Z,39.29
2022-08-25T13:40:44.226Z,39.35
2022-08-25T13:43:15.046Z,39.40
2022-08-25T13:45:44.141Z,39.45
2022-08-25T13:48:22.765Z,39.34
2022-08-25T13:50:52.099Z,39.05
2022-08-25T13:53:23.981Z,39.35
2022-08-25T13:55:53.175Z,39.27
2022-08-25T13:58:39.018Z,39.09
2022-08-25T14:01:22.214Z,38.94
2022-08-25T14:04:23.066Z,38.85
2022-08-25T14:07:05.581Z,38.75
2022-08-25T14:09:39.522Z,38.61
2022-08-25T14:12:09.318Z,38.80
2022-08-25T14:14:38.787Z,38.86
2022-08-25T14:17:22.341Z,38.86
2022-08-25T14:19:55.740Z,38.97
2022-08-25T14:22:23.729Z,39.06
2022-08-25T14:24:53.711Z,39.06
2022-08-25T14:27:21.776Z,39.10
2022-08-25T14:29:52.949Z,39.11
2022-08-25T14:32:21.005Z,39.08
2022-08-25T14:34:48.909Z,39.05
2022-08-25T14:37:17.709Z,38.83
2022-08-25T14:39:46.932Z,38.90
2022-08-25T14:42:16.770Z,38.80
2022-08-25T14:44:45.794Z,38.71
2022-08-25T14:47:15.033Z,38.63
2022-08-25T14:49:45.811Z,38.62
2022-08-25T14:52:17.580Z,38.60
2022-08-25T14:54:45.698Z,38.68
2022-08-25T14:57:13.939Z,38.59
2022-08-25T14:59:43.141Z,38.53
2022-08-25T15:02:13.093Z,38.54
2022-08-25T15:04:49.312Z,38.42
2022-08-25T15:07:37.356Z,38.59
2022-08-25T15:10:08.714Z,38.52
2022-08-25T15:12:47.678Z,38.41
2022-08-25T15:15:16.274Z,38.44
2022-08-25T15:17:46.735Z,38.29
2022-08-25T15:20:19.116Z,38.43
2022-08-25T15:22:48.145Z,38.42
2022-08-25T15:25:16.787Z,38.32
2022-08-25T15:27:46.962Z,38.05
2022-08-25T15:30:15.573Z,38.08
2022-08-25T15:32:43.564Z,37.86
2022-08-25T15:35:11.708Z,37.86
2022-08-25T15:37:44.645Z,37.67
2022-08-25T15:40:13.092Z,37.37
2022-08-25T15:42:42.831Z,37.55
2022-08-25T15:45:14.385Z,37.45
2022-08-25T15:47:42.296Z,37.39
2022-08-25T15:50:12.510Z,37.27
2022-08-25T15:52:46.445Z,37.28
2022-08-25T15:55:17.393Z,37.00
2022-08-25T15:57:46.327Z,37.19
2022-08-25T16:00:16.545Z,36.99
2022-08-25T16:02:46.356Z,37.12
2022-08-25T16:05:16.490Z,37.08
2022-08-25T16:07:46.038Z,36.72
2022-08-25T16:10:23.872Z,37.10
2022-08-25T16:12:53.228Z,37.10
2022-08-25T16:15:23.781Z,37.20
2022-08-25T16:17:52.187Z,36.90
2022-08-25T16:20:20.817Z,37.09
2022-08-25T16:22:51.310Z,37.28
2022-08-25T16:25:19.418Z,37.27
2022-08-25T16:27:49.143Z,37.30
2022-08-25T16:30:18.128Z,37.28
2022-08-25T16:32:46.610Z,37.29
2022-08-25T16:35:14.615Z,36.81
2022-08-25T16:37:42.680Z,37.08
2022-08-25T16:40:14.591Z,37.23
2022-08-25T16:42:42.911Z,36.61
2022-08-25T16:45:12.660Z,37.19
2022-08-25T16:47:42.755Z,37.17
2022-08-25T16:50:11.269Z,37.18
2022-08-25T16:52:56.728Z,37.17
2022-08-25T16:55:26.308Z,37.14
2022-08-25T16:57:54.556Z,37.10
2022-08-25T17:00:25.425Z,37.11
2022-08-25T17:02:56.038Z,37.00
2022-08-25T17:05:23.975Z,37.03
2022-08-25T17:08:06.302Z,37.06
2022-08-25T17:10:36.915Z,37.02
2022-08-25T17:13:04.859Z,37.02
2022-08-25T17:15:34.271Z,36.98
2022-08-25T17:18:02.304Z,36.94
2022-08-25T17:20:32.722Z,36.87
2022-08-25T17:23:02.701Z,36.78
2022-08-25T17:25:41.510Z,36.52
2022-08-25T17:28:11.918Z,36.57
2022-08-25T17:30:43.513Z,36.53
2022-08-25T17:33:11.833Z,36.47
2022-08-25T17:35:40.505Z,36.09
2022-08-25T17:38:08.730Z,36.41
2022-08-25T17:40:37.458Z,36.37
2022-08-25T17:43:05.922Z,36.27
2022-08-25T17:45:37.440Z,36.27
2022-08-25T17:48:10.147Z,36.24
2022-08-25T17:50:39.234Z,36.18
2022-08-25T17:53:07.320Z,36.13
2022-08-25T17:55:38.639Z,36.04
2022-08-25T17:58:06.685Z,36.02
2022-08-25T18:00:34.832Z,35.90
2022-08-25T18:03:04.263Z,35.89
2022-08-25T18:05:35.075Z,35.60
2022-08-25T18:08:03.523Z,35.76
2022-08-25T18:10:31.707Z,35.68
2022-08-25T18:13:02.122Z,35.59
2022-08-25T18:15:33.967Z,35.50
2022-08-25T18:18:04.494Z,35.43
2022-08-25T18:20:34.294Z,35.33
2022-08-25T18:23:05.835Z,35.17
2022-08-25T18:25:37.722Z,35.14
2022-08-25T18:28:10.558Z,35.07
2022-08-25T18:30:38.846Z,34.99
2022-08-25T18:33:07.562Z,34.90
2022-08-25T18:35:37.992Z,34.82
2022-08-25T18:38:23.509Z,34.75
2022-08-25T18:40:55.968Z,34.65
2022-08-25T18:43:24.031Z,34.49
2022-08-25T18:45:52.424Z,34.48
2022-08-25T18:48:23.651Z,34.40
2022-08-25T18:50:56.737Z,34.05
2022-08-25T18:53:30.330Z,34.03
2022-08-25T18:56:05.559Z,34.14
2022-08-25T18:58:33.470Z,34.06
2022-08-25T19:01:01.579Z,33.98
2022-08-25T19:03:30.089Z,33.91
2022-08-25T19:06:00.130Z,33.78
2022-08-25T19:08:28.754Z,33.74
2022-08-25T19:10:56.919Z,33.66
2022-08-25T19:13:25.403Z,33.61
2022-08-25T19:15:53.564Z,33.52
2022-08-25T19:18:26.086Z,33.45
2022-08-25T19:20:58.504Z,33.37
2022-08-25T19:23:28.415Z,33.32
2022-08-25T19:25:56.618Z,33.26
2022-08-25T19:28:25.965Z,33.19
2022-08-25T19:30:54.218Z,33.10
2022-08-25T19:33:42.835Z,33.04
2022-08-25T19:36:10.122Z,32.96
2022-08-25T19:38:44.043Z,32.88
2022-08-25T19:41:14.665Z,32.80
2022-08-25T19:43:55.406Z,32.68
2022-08-25T19:46:25.107Z,32.60
2022-08-25T19:48:53.087Z,32.52
2022-08-25T19:51:21.872Z,32.45
2022-08-25T19:53:54.783Z,32.38
2022-08-25T19:56:24.431Z,32.31
2022-08-25T19:58:52.378Z,32.23
2022-08-25T20:01:20.655Z,32.17
2022-08-25T20:03:48.935Z,32.11
2022-08-25T20:06:17.851Z,32.04
2022-08-25T20:08:45.980Z,31.93
2022-08-25T20:11:15.308Z,31.81
2022-08-25T20:13:43.193Z,31.75
2022-08-25T20:16:12.174Z,31.70
2022-08-25T20:18:40.221Z,31.65
2022-08-25T20:21:08.536Z,31.59
2022-08-25T20:23:53.961Z,31.39
2022-08-25T20:26:26.931Z,31.37
2022-08-25T20:28:55.159Z,31.41
2022-08-25T20:31:23.180Z,31.25
2022-08-25T20:33:51.555Z,31.29
2022-08-25T20:36:20.534Z,30.91
2022-08-25T20:38:48.854Z,31.16
2022-08-25T20:41:17.954Z,31.01
2022-08-25T20:43:47.932Z,31.02
2022-08-25T20:46:16.384Z,30.80
2022-08-25T20:48:44.798Z,30.86
2022-08-25T20:51:13.078Z,30.82
2022-08-25T20:53:42.442Z,30.78
2022-08-25T20:56:10.599Z,30.62
2022-08-25T20:58:38.788Z,30.67
2022-08-25T21:01:10.079Z,30.70
2022-08-25T21:03:38.073Z,30.66
2022-08-25T21:06:08.761Z,30.61
2022-08-25T21:08:38.612Z,30.56
2022-08-25T21:11:13.059Z,30.53
2022-08-25T21:13:41.041Z,30.49
2022-08-25T21:16:10.512Z,30.45
2022-08-25T21:18:39.144Z,30.42
2022-08-25T21:21:15.148Z,30.36
2022-08-25T21:23:45.893Z,30.26
2022-08-25T21:26:14.539Z,30.27
2022-08-25T21:28:47.605Z,30.25
2022-08-25T21:31:18.207Z,30.14
2022-08-25T21:33:46.598Z,30.18
2022-08-25T21:36:19.982Z,30.15
2022-08-25T21:38:49.480Z,28.39
2022-08-25T21:41:19.585Z,28.74
2022-08-25T21:44:29.649Z,29.57
2022-08-25T21:47:21.311Z,30.02
2022-08-25T21:49:50.096Z,28.36
2022-08-25T21:52:18.306Z,29.15
2022-08-25T21:54:46.402Z,29.70
2022-08-25T21:57:14.642Z,29.09
2022-08-25T21:59:43.757Z,28.61
2022-08-25T22:02:13.012Z,28.34
2022-08-25T22:04:44.616Z,29.06
2022-08-25T22:07:12.551Z,29.72
2022-08-25T22:09:42.288Z,29.61
2022-08-25T22:15:17.793Z,29.61
2022-08-25T22:17:46.023Z,29.59
2022-08-25T22:20:17.790Z,29.54
2022-08-25T22:22:45.624Z,29.53
2022-08-25T22:25:14.056Z,29.47
2022-08-25T22:27:42.650Z,29.45
2022-08-25T22:30:11.521Z,29.38
2022-08-25T22:32:39.555Z,29.37
2022-08-25T22:35:08.334Z,29.33
2022-08-25T22:37:39.079Z,29.30
2022-08-25T22:40:09.049Z,29.21
2022-08-25T22:42:37.137Z,29.23
2022-08-25T22:45:06.173Z,29.15
2022-08-25T22:47:34.232Z,29.18
2022-08-25T22:50:02.055Z,29.17
2022-08-25T22:52:33.639Z,29.14
2022-08-25T22:55:03.474Z,29.11
2022-08-25T22:57:31.474Z,29.09
2022-08-25T22:59:59.806Z,29.07
2022-08-25T23:02:30.245Z,29.04
2022-08-25T23:05:00.205Z,29.01
2022-08-25T23:07:29.206Z,28.97
2022-08-25T23:09:57.021Z,28.96
2022-08-25T23:12:26.404Z,28.95
2022-08-25T23:14:54.606Z,28.93
2022-08-25T23:17:22.419Z,28.99
2022-08-25T23:19:50.505Z,29.02
2022-08-25T23:22:17.619Z,28.79
2022-08-25T23:24:48.164Z,29.01
2022-08-25T23:27:17.198Z,29.06
2022-08-25T23:29:48.729Z,29.12
2022-08-25T23:32:17.110Z,29.15
2022-08-25T23:34:47.133Z,29.16
2022-08-25T23:37:15.192Z,29.16
2022-08-25T23:39:45.623Z,29.09
2022-08-25T23:42:13.551Z,29.14
2022-08-25T23:44:41.588Z,29.16
2022-08-25T23:47:12.056Z,29.14
2022-08-25T23:49:40.231Z,29.11
2022-08-25T23:52:08.119Z,29.09
2022-08-25T23:54:36.319Z,29.07
2022-08-25T23:57:06.742Z,28.12
2022-08-25T23:59:35.422Z,28.74
